Time;durP1;ratioP1;P1;durP2;ratioP2;P2;SDS_P1;SDS_P2;PMS_P1;PMS_P2;Temp;Humidity;BMP_temperature;BMP_pressure;BME280_temperature;BME280_humidity;BME280_pressure;Samples;Min_cycle;Max_cycle;Signal;HPM_P1;HPM_P2
2023/07/29 00:00:51;;;;;;;2.22;1.42;;;21.70;67.50;;;;;;4993602;28;20056;-50
2023/07/29 00:03:17;;;;;;;1.48;1.15;;;21.70;67.60;;;;;;4995939;28;20419;-56
2023/07/29 00:05:42;;;;;;;1.63;1.38;;;21.70;67.80;;;;;;4995356;28;20484;-51
2023/07/29 00:08:08;;;;;;;1.52;1.20;;;21.70;67.80;;;;;;4992982;28;20531;-52
2023/07/29 00:10:37;;;;;;;2.60;1.35;;;21.70;67.70;;;;;;4981391;28;20038;-51
2023/07/29 00:13:03;;;;;;;1.98;1.55;;;21.70;67.80;;;;;;4993507;28;20080;-49
2023/07/29 00:15:28;;;;;;;1.80;1.13;;;21.70;67.70;;;;;;4975026;28;20106;-52
2023/07/29 00:17:54;;;;;;;1.33;1.20;;;21.70;67.50;;;;;;4993166;28;20497;-52
2023/07/29 00:20:19;;;;;;;1.63;1.00;;;21.70;67.90;;;;;;4989939;28;20035;-53
2023/07/29 00:22:45;;;;;;;2.25;1.25;;;21.70;67.90;;;;;;4998448;28;20079;-53
2023/07/29 00:25:10;;;;;;;1.67;1.10;;;21.70;67.90;;;;;;5001729;28;20218;-52
2023/07/29 00:27:36;;;;;;;1.48;1.10;;;21.70;67.70;;;;;;4996106;28;20053;-52
2023/07/29 00:30:02;;;;;;;1.17;0.80;;;21.70;68.30;;;;;;4996506;28;20058;-53
2023/07/29 00:32:29;;;;;;;2.40;1.45;;;21.70;67.90;;;;;;4997661;28;20026;-53
2023/07/29 00:34:55;;;;;;;2.08;1.23;;;21.70;67.60;;;;;;4998031;28;20022;-53
2023/07/29 00:37:21;;;;;;;1.20;0.88;;;21.70;67.70;;;;;;4997925;28;20490;-51
2023/07/29 00:39:46;;;;;;;2.67;1.05;;;21.70;67.60;;;;;;4996873;28;20034;-50
2023/07/29 00:42:12;;;;;;;2.45;1.27;;;21.70;67.70;;;;;;4996554;28;20037;-52
2023/07/29 00:44:37;;;;;;;4.05;1.27;;;21.70;67.80;;;;;;4997400;28;20471;-53
2023/07/29 00:47:05;;;;;;;2.13;1.20;;;21.70;67.90;;;;;;4995598;28;20734;-50
2023/07/29 00:49:32;;;;;;;1.70;1.20;;;21.70;67.60;;;;;;4993212;28;20093;-51
2023/07/29 00:51:58;;;;;;;1.63;1.00;;;21.70;67.50;;;;;;4997787;28;20038;-53
2023/07/29 00:54:23;;;;;;;1.52;1.20;;;21.70;67.60;;;;;;5000738;28;20044;-52
2023/07/29 00:56:49;;;;;;;1.85;1.58;;;21.70;67.70;;;;;;5000267;28;20030;-51
2023/07/29 00:59:15;;;;;;;1.52;1.42;;;21.70;67.60;;;;;;4994551;28;20038;-50
2023/07/29 01:01:40;;;;;;;1.25;1.00;;;21.70;67.80;;;;;;5020966;23;20038;-51
2023/07/29 01:04:06;;;;;;;1.00;0.90;;;21.70;67.90;;;;;;5022481;28;20535;-52
2023/07/29 01:06:53;;;;;;;1.55;1.00;;;21.70;67.70;;;;;;5014391;28;20031;-51
2023/07/29 01:09:58;;;;;;;1.67;1.05;;;21.70;67.90;;;;;;4995782;28;20037;-51
2023/07/29 01:12:54;;;;;;;1.48;0.80;;;21.70;67.50;;;;;;4994911;28;20236;-53
2023/07/29 01:15:28;;;;;;;1.42;0.90;;;21.70;67.90;;;;;;4979074;28;20030;-54
2023/07/29 01:18:03;;;;;;;1.45;1.10;;;21.70;68.00;;;;;;4993018;28;20194;-55
2023/07/29 01:20:33;;;;;;;2.78;0.93;;;21.70;67.80;;;;;;4993635;28;20161;-52
2023/07/29 01:22:59;;;;;;;1.88;0.90;;;21.70;68.20;;;;;;5000605;28;20483;-51
2023/07/29 01:25:24;;;;;;;1.55;1.00;;;21.60;68.10;;;;;;4997606;28;20025;-54
2023/07/29 01:27:51;;;;;;;1.42;0.75;;;21.70;67.80;;;;;;4996490;28;20026;-52
2023/07/29 01:30:17;;;;;;;1.35;1.00;;;21.60;67.90;;;;;;4996886;28;20037;-54
2023/07/29 01:33:24;;;;;;;1.40;1.00;;;21.70;67.70;;;;;;4995931;28;20112;-52
2023/07/29 01:35:51;;;;;;;;;;;21.60;67.80;;;;;;4932490;28;20023;-50
2023/07/29 01:38:20;;;;;;;2.00;1.33;;;21.70;67.90;;;;;;4951105;28;19977;-51
2023/07/29 01:40:48;;;;;;;1.70;0.90;;;21.70;67.90;;;;;;4954599;28;20734;-52
2023/07/29 01:43:14;;;;;;;0.80;0.80;;;21.60;68.00;;;;;;4976227;28;20037;-52
2023/07/29 01:45:40;;;;;;;1.13;1.02;;;21.70;67.70;;;;;;4973447;28;20029;-54
2023/07/29 01:48:06;;;;;;;1.75;0.98;;;21.60;67.80;;;;;;4990875;28;20033;-50
2023/07/29 01:50:32;;;;;;;1.10;0.77;;;21.70;67.90;;;;;;4994783;28;20031;-52
2023/07/29 01:52:58;;;;;;;1.45;0.85;;;21.70;68.00;;;;;;4998928;28;20033;-51
2023/07/29 01:55:24;;;;;;;1.63;0.80;;;21.60;68.10;;;;;;4978632;28;20026;-54
2023/07/29 01:57:51;;;;;;;0.82;0.70;;;21.60;67.90;;;;;;4996397;28;20041;-51
2023/07/29 02:00:16;;;;;;;0.60;0.60;;;21.70;68.10;;;;;;4993563;28;20038;-54
2023/07/29 02:02:42;;;;;;;1.92;0.88;;;21.60;67.90;;;;;;4993673;28;20083;-51
2023/07/29 02:05:07;;;;;;;1.60;0.75;;;21.60;67.70;;;;;;4996475;28;20112;-54
2023/07/29 02:07:33;;;;;;;0.70;0.60;;;21.60;68.40;;;;;;4994211;28;20049;-51
2023/07/29 02:09:59;;;;;;;0.77;0.60;;;21.60;68.30;;;;;;4993583;28;20201;-52
2023/07/29 02:12:24;;;;;;;1.42;1.00;;;21.60;68.00;;;;;;4994927;28;20117;-54
2023/07/29 02:14:50;;;;;;;0.68;0.60;;;21.60;67.90;;;;;;4995010;28;20037;-51
2023/07/29 02:17:15;;;;;;;0.75;0.70;;;21.60;68.00;;;;;;4991975;28;20027;-55
2023/07/29 02:19:41;;;;;;;3.08;0.70;;;21.60;67.90;;;;;;4994996;28;20069;-54
2023/07/29 02:22:06;;;;;;;0.75;0.63;;;21.60;68.00;;;;;;4996043;28;20087;-51
2023/07/29 02:24:32;;;;;;;1.60;0.60;;;21.60;67.90;;;;;;4996392;28;20070;-51
2023/07/29 02:26:57;;;;;;;2.20;1.42;;;21.70;67.90;;;;;;4995395;28;20048;-51
2023/07/29 02:29:24;;;;;;;2.03;0.68;;;21.70;68.00;;;;;;4990821;28;20513;-50
2023/07/29 02:31:50;;;;;;;1.98;0.60;;;21.60;67.90;;;;;;4993403;28;20034;-54
2023/07/29 02:34:16;;;;;;;0.60;0.60;;;21.70;68.10;;;;;;4995527;28;20066;-50
2023/07/29 02:36:41;;;;;;;2.05;0.82;;;21.70;68.30;;;;;;4995059;28;20696;-52
2023/07/29 02:39:07;;;;;;;1.23;0.65;;;21.70;68.10;;;;;;4993797;28;20041;-52
2023/07/29 02:41:32;;;;;;;0.57;0.40;;;21.60;68.00;;;;;;4991302;28;20042;-52
2023/07/29 02:43:58;;;;;;;1.30;0.85;;;21.60;68.10;;;;;;4995161;28;20496;-51
2023/07/29 02:46:23;;;;;;;2.28;0.60;;;21.70;68.00;;;;;;4997305;28;20488;-51
2023/07/29 02:48:50;;;;;;;0.85;0.60;;;21.60;68.20;;;;;;4994324;28;20027;-51
2023/07/29 02:51:15;;;;;;;0.77;0.60;;;21.60;68.10;;;;;;4996378;28;20434;-51
2023/07/29 02:53:41;;;;;;;1.23;0.88;;;21.60;67.90;;;;;;4997598;28;20030;-53
2023/07/29 02:56:08;;;;;;;0.95;0.70;;;21.60;68.10;;;;;;4997105;28;20029;-50
2023/07/29 02:58:34;;;;;;;1.23;0.50;;;21.70;68.10;;;;;;4993888;28;20068;-50
2023/07/29 03:01:04;;;;;;;0.70;0.50;;;21.60;67.80;;;;;;4988698;28;20074;-51
2023/07/29 03:03:32;;;;;;;1.10;0.50;;;21.70;68.10;;;;;;4976740;28;20065;-55
2023/07/29 03:06:05;;;;;;;0.95;0.60;;;21.60;68.10;;;;;;4993261;28;20130;-50
2023/07/29 03:08:31;;;;;;;2.58;0.70;;;21.60;67.80;;;;;;4991198;28;21405;-51
2023/07/29 03:10:57;;;;;;;1.00;0.70;;;21.70;67.90;;;;;;4992150;28;20042;-51
2023/07/29 03:13:23;;;;;;;0.45;0.45;;;21.60;67.50;;;;;;4976660;28;20735;-50
2023/07/29 03:15:48;;;;;;;1.27;0.70;;;21.70;67.60;;;;;;4972524;28;20074;-52
2023/07/29 03:18:14;;;;;;;2.35;0.70;;;21.70;67.70;;;;;;4984546;28;20410;-52
2023/07/29 03:20:40;;;;;;;0.50;0.50;;;21.70;67.50;;;;;;4976962;28;20050;-50
2023/07/29 03:23:06;;;;;;;0.80;0.60;;;21.70;67.70;;;;;;4978856;28;20100;-53
2023/07/29 03:25:31;;;;;;;3.35;1.25;;;21.70;68.00;;;;;;4979551;28;20260;-55
2023/07/29 03:27:57;;;;;;;0.82;0.63;;;21.70;67.60;;;;;;4967381;28;20043;-51
2023/07/29 03:30:23;;;;;;;0.95;0.43;;;21.70;67.50;;;;;;4988655;28;20065;-50
2023/07/29 03:32:49;;;;;;;0.95;0.60;;;21.70;67.40;;;;;;4982357;28;20056;-51
2023/07/29 03:35:15;;;;;;;0.88;0.60;;;21.70;67.50;;;;;;4991190;28;20030;-50
2023/07/29 03:37:41;;;;;;;0.73;0.73;;;21.70;67.70;;;;;;4992185;28;20033;-51
2023/07/29 03:40:09;;;;;;;0.50;0.30;;;21.60;67.60;;;;;;4991345;28;20041;-51
2023/07/29 03:42:35;;;;;;;1.80;0.75;;;21.70;67.50;;;;;;4993319;28;20495;-51
2023/07/29 03:45:00;;;;;;;1.02;0.45;;;21.70;67.40;;;;;;4995125;28;20045;-53
2023/07/29 03:47:26;;;;;;;0.70;0.60;;;21.70;67.50;;;;;;4995233;28;20077;-53
2023/07/29 03:49:51;;;;;;;0.65;0.57;;;21.70;67.50;;;;;;4996850;28;20568;-52
2023/07/29 03:52:17;;;;;;;0.82;0.70;;;21.70;67.50;;;;;;4996352;28;20034;-50
2023/07/29 03:54:42;;;;;;;1.10;0.43;;;21.70;67.30;;;;;;4995915;28;20546;-51
2023/07/29 03:57:08;;;;;;;0.70;0.70;;;21.70;67.40;;;;;;4996524;28;20038;-50
2023/07/29 03:59:34;;;;;;;0.65;0.50;;;21.70;67.50;;;;;;4996554;28;20060;-50
2023/07/29 04:01:59;;;;;;;1.73;0.52;;;21.70;67.50;;;;;;4996719;28;20490;-53
2023/07/29 04:04:25;;;;;;;1.17;0.40;;;21.70;67.50;;;;;;4997323;28;20113;-52
2023/07/29 04:06:50;;;;;;;0.95;0.50;;;21.70;67.70;;;;;;4993803;28;20072;-50
2023/07/29 04:09:16;;;;;;;0.50;0.40;;;21.70;67.50;;;;;;4995911;28;20030;-50
2023/07/29 04:11:41;;;;;;;1.83;0.50;;;21.60;67.60;;;;;;4994399;28;20037;-58
2023/07/29 04:14:07;;;;;;;0.63;0.45;;;21.60;67.50;;;;;;4996274;28;20033;-52
2023/07/29 04:16:32;;;;;;;0.68;0.63;;;21.60;67.50;;;;;;4992465;28;20034;-50
2023/07/29 04:18:58;;;;;;;0.60;0.50;;;21.60;67.40;;;;;;4999109;28;20095;-50
2023/07/29 04:21:23;;;;;;;2.40;0.77;;;21.60;67.70;;;;;;4998720;28;20038;-50
2023/07/29 04:23:49;;;;;;;0.50;0.40;;;21.70;67.90;;;;;;5001076;28;20033;-53
2023/07/29 04:26:14;;;;;;;1.00;0.60;;;21.70;67.60;;;;;;4999036;28;20037;-51
2023/07/29 04:28:40;;;;;;;0.40;0.40;;;21.60;67.70;;;;;;4997519;28;20030;-52
2023/07/29 04:31:05;;;;;;;0.40;0.40;;;21.60;67.70;;;;;;4994243;28;20041;-53
2023/07/29 04:33:31;;;;;;;0.75;0.50;;;21.60;67.50;;;;;;4996651;28;20435;-50
2023/07/29 04:35:57;;;;;;;0.50;0.45;;;21.70;67.70;;;;;;4995902;28;20618;-53
2023/07/29 04:38:27;;;;;;;0.75;0.73;;;21.70;67.50;;;;;;4993587;28;20109;-50
2023/07/29 04:40:52;;;;;;;2.05;0.50;;;21.60;67.50;;;;;;4993931;28;20488;-50
2023/07/29 04:43:18;;;;;;;0.73;0.60;;;21.60;67.60;;;;;;4991734;28;20048;-53
2023/07/29 04:45:44;;;;;;;1.25;0.50;;;21.70;67.90;;;;;;4994998;28;20026;-53
2023/07/29 04:48:10;;;;;;;0.45;0.43;;;21.70;67.90;;;;;;4983134;28;20109;-51
2023/07/29 04:50:35;;;;;;;2.28;0.52;;;21.60;67.70;;;;;;4997721;28;20129;-50
2023/07/29 04:53:01;;;;;;;0.82;0.47;;;21.70;67.70;;;;;;4999120;28;20030;-50
2023/07/29 04:55:26;;;;;;;0.75;0.60;;;21.70;67.60;;;;;;4995237;28;20050;-53
2023/07/29 04:57:52;;;;;;;0.90;0.50;;;21.60;67.50;;;;;;4996408;28;20368;-50
2023/07/29 05:00:17;;;;;;;0.73;0.73;;;21.60;67.40;;;;;;4997140;28;20084;-50
2023/07/29 05:02:43;;;;;;;0.70;0.70;;;21.60;67.30;;;;;;4995354;28;20614;-51
2023/07/29 05:05:09;;;;;;;0.50;0.47;;;21.60;67.60;;;;;;4979699;28;20121;-53
2023/07/29 05:07:34;;;;;;;0.65;0.60;;;21.60;67.70;;;;;;4991824;28;20036;-52
2023/07/29 05:10:00;;;;;;;0.85;0.80;;;21.60;68.00;;;;;;4996803;28;20042;-52
2023/07/29 05:12:25;;;;;;;1.15;0.52;;;21.70;67.90;;;;;;4993820;28;20041;-51
2023/07/29 05:14:51;;;;;;;0.68;0.60;;;21.60;67.70;;;;;;4993750;28;20108;-51
2023/07/29 05:17:16;;;;;;;0.50;0.50;;;21.60;67.50;;;;;;5000656;28;20475;-54
2023/07/29 05:19:42;;;;;;;1.30;0.50;;;21.60;67.60;;;;;;4996829;28;20040;-54
2023/07/29 05:22:08;;;;;;;0.65;0.65;;;21.60;67.40;;;;;;4999008;28;20030;-50
2023/07/29 05:24:33;;;;;;;0.40;0.40;;;21.60;67.50;;;;;;4995135;28;20068;-52
2023/07/29 05:26:59;;;;;;;0.60;0.50;;;21.70;67.40;;;;;;4998355;28;20030;-50
2023/07/29 05:29:24;;;;;;;0.70;0.50;;;21.70;67.30;;;;;;4995252;28;20483;-50
2023/07/29 05:31:50;;;;;;;1.15;0.60;;;21.70;67.30;;;;;;4992676;28;20039;-51
2023/07/29 05:34:15;;;;;;;0.90;0.60;;;21.70;67.20;;;;;;4994871;28;20030;-51
2023/07/29 05:36:41;;;;;;;0.57;0.45;;;21.70;67.30;;;;;;4992123;28;20038;-50
2023/07/29 05:39:07;;;;;;;0.80;0.70;;;21.70;67.10;;;;;;4992726;28;20051;-51
2023/07/29 05:41:32;;;;;;;0.80;0.60;;;21.70;68.10;;;;;;4993829;28;20117;-50
2023/07/29 05:43:58;;;;;;;0.65;0.50;;;21.70;67.30;;;;;;4993604;28;20029;-53
2023/07/29 05:46:23;;;;;;;1.17;0.85;;;21.70;67.30;;;;;;4996052;28;20103;-54
2023/07/29 05:48:49;;;;;;;0.60;0.60;;;21.70;67.30;;;;;;4996186;28;20040;-50
2023/07/29 05:51:14;;;;;;;0.55;0.55;;;21.70;67.50;;;;;;4997442;28;20026;-51
2023/07/29 05:53:40;;;;;;;2.42;0.70;;;21.70;67.60;;;;;;4997443;28;20026;-50
2023/07/29 05:56:05;;;;;;;2.60;0.80;;;21.70;67.40;;;;;;4992011;28;20037;-50
2023/07/29 05:58:31;;;;;;;0.57;0.50;;;21.70;67.40;;;;;;4996072;28;20038;-50
2023/07/29 06:00:57;;;;;;;0.60;0.60;;;21.70;67.10;;;;;;4993214;28;20038;-51
2023/07/29 06:03:23;;;;;;;1.08;0.55;;;21.80;67.20;;;;;;4992099;28;20049;-52
2023/07/29 06:05:49;;;;;;;1.58;0.90;;;21.80;67.30;;;;;;4993373;28;20034;-53
2023/07/29 06:08:15;;;;;;;0.80;0.70;;;21.80;67.30;;;;;;4973413;28;20117;-53
2023/07/29 06:10:40;;;;;;;1.15;0.75;;;21.80;67.30;;;;;;4994395;28;20528;-51
2023/07/29 06:13:06;;;;;;;0.50;0.50;;;21.80;67.20;;;;;;4989835;28;20085;-52
2023/07/29 06:15:32;;;;;;;1.15;0.60;;;21.80;67.00;;;;;;4991666;28;20507;-51
2023/07/29 06:17:57;;;;;;;1.08;0.98;;;21.80;67.10;;;;;;4997917;28;20026;-51
2023/07/29 06:20:23;;;;;;;0.52;0.50;;;21.80;66.70;;;;;;4995145;28;20033;-51
2023/07/29 06:22:48;;;;;;;0.90;0.60;;;21.90;67.10;;;;;;4991621;28;20034;-54
2023/07/29 06:25:14;;;;;;;0.80;0.75;;;21.90;66.90;;;;;;4992690;28;20022;-51
2023/07/29 06:27:39;;;;;;;1.55;0.60;;;21.90;67.00;;;;;;4991277;28;20484;-50
2023/07/29 06:30:05;;;;;;;0.77;0.60;;;21.80;67.00;;;;;;4993270;28;20472;-53
2023/07/29 06:32:31;;;;;;;0.88;0.60;;;21.80;67.20;;;;;;4991286;28;20084;-50
2023/07/29 06:34:57;;;;;;;1.30;0.77;;;21.90;67.40;;;;;;4992201;28;20034;-53
2023/07/29 06:37:23;;;;;;;3.60;0.95;;;21.80;67.20;;;;;;4989847;28;20116;-54
2023/07/29 06:39:48;;;;;;;2.15;1.08;;;21.90;68.40;;;;;;4995332;28;20058;-51
2023/07/29 06:42:14;;;;;;;2.67;1.13;;;21.80;67.60;;;;;;4986231;28;20030;-52
2023/07/29 06:44:40;;;;;;;2.05;0.85;;;21.80;69.80;;;;;;4989944;28;20038;-52
2023/07/29 06:47:06;;;;;;;2.05;1.00;;;21.80;70.10;;;;;;4992661;28;20029;-54
2023/07/29 06:49:31;;;;;;;2.20;1.00;;;21.70;70.70;;;;;;4992983;28;20036;-53
2023/07/29 06:51:57;;;;;;;0.85;0.80;;;21.70;70.90;;;;;;4992967;28;20064;-51
2023/07/29 06:54:28;;;;;;;0.60;0.60;;;21.70;70.70;;;;;;4993137;28;20054;-52
2023/07/29 06:56:54;;;;;;;1.45;0.98;;;21.70;70.90;;;;;;4991392;28;20562;-54
2023/07/29 06:59:19;;;;;;;3.42;0.70;;;21.70;70.50;;;;;;4989623;28;20038;-50
2023/07/29 07:01:45;;;;;;;1.15;0.90;;;21.70;71.10;;;;;;4990907;28;20050;-50
2023/07/29 07:04:10;;;;;;;2.28;0.90;;;21.70;70.70;;;;;;4988430;28;20031;-53
2023/07/29 07:06:36;;;;;;;1.33;0.80;;;21.80;70.80;;;;;;4992222;28;20034;-53
2023/07/29 07:09:02;;;;;;;1.10;0.73;;;21.80;70.60;;;;;;4994340;28;20041;-50
2023/07/29 07:11:28;;;;;;;1.15;0.80;;;21.80;70.80;;;;;;4991709;28;20479;-51
2023/07/29 07:13:53;;;;;;;1.20;1.10;;;21.80;71.30;;;;;;4993213;28;20782;-51
2023/07/29 07:16:19;;;;;;;1.70;0.98;;;21.80;70.70;;;;;;4995073;28;20112;-53
2023/07/29 07:18:44;;;;;;;0.95;0.80;;;21.80;71.00;;;;;;4994940;28;20062;-51
2023/07/29 07:21:10;;;;;;;1.88;1.13;;;21.80;71.00;;;;;;4995436;28;20472;-53
2023/07/29 07:23:36;;;;;;;1.70;0.70;;;21.80;71.40;;;;;;4989178;28;20045;-50
2023/07/29 07:26:01;;;;;;;1.10;1.00;;;21.80;71.60;;;;;;4992646;28;20057;-51
2023/07/29 07:28:27;;;;;;;1.30;0.90;;;21.80;71.50;;;;;;4991652;28;20088;-52
2023/07/29 07:30:53;;;;;;;2.58;0.98;;;21.80;71.70;;;;;;4993765;28;20056;-53
2023/07/29 07:33:18;;;;;;;1.42;0.93;;;21.80;71.40;;;;;;4976101;28;20404;-51
2023/07/29 07:35:44;;;;;;;1.98;1.00;;;21.80;70.80;;;;;;4993571;28;20034;-53
2023/07/29 07:38:09;;;;;;;1.10;0.90;;;21.80;70.90;;;;;;4997804;28;20037;-52
2023/07/29 07:40:36;;;;;;;1.50;1.02;;;21.90;71.00;;;;;;4980796;28;20038;-52
2023/07/29 07:43:02;;;;;;;0.77;0.70;;;21.80;71.30;;;;;;5000035;28;20057;-52
2023/07/29 07:45:27;;;;;;;1.98;1.20;;;21.80;71.40;;;;;;4998713;28;20034;-53
2023/07/29 07:47:53;;;;;;;1.42;1.20;;;21.90;71.40;;;;;;5000061;28;20033;-50
2023/07/29 07:50:19;;;;;;;1.55;0.88;;;21.80;71.40;;;;;;4999143;28;20648;-50
2023/07/29 07:52:44;;;;;;;0.75;0.75;;;21.80;71.50;;;;;;5000214;28;20793;-51
2023/07/29 07:55:10;;;;;;;1.10;1.00;;;21.80;71.10;;;;;;4996992;28;20037;-50
2023/07/29 07:57:36;;;;;;;1.20;1.10;;;21.80;71.80;;;;;;4994530;28;20041;-54
2023/07/29 08:00:01;;;;;;;1.77;1.00;;;21.80;71.70;;;;;;4993732;28;20772;-51
2023/07/29 08:02:27;;;;;;;2.22;1.08;;;21.80;71.10;;;;;;4992642;28;20097;-50
2023/07/29 08:04:52;;;;;;;1.40;1.30;;;21.80;70.90;;;;;;4992587;28;20883;-53
2023/07/29 08:07:18;;;;;;;2.15;0.90;;;21.90;70.80;;;;;;4997866;28;20129;-51
2023/07/29 08:09:44;;;;;;;1.25;1.00;;;21.80;71.50;;;;;;4993291;28;20034;-58
2023/07/29 08:12:10;;;;;;;1.23;0.90;;;21.80;71.10;;;;;;4996740;28;20037;-52
2023/07/29 08:14:35;;;;;;;1.52;1.40;;;21.80;71.20;;;;;;4998301;28;20034;-51
2023/07/29 08:17:01;;;;;;;2.22;1.50;;;21.80;71.80;;;;;;4999586;28;20061;-50
2023/07/29 08:19:27;;;;;;;1.30;1.15;;;21.80;71.90;;;;;;4998263;28;20030;-52
2023/07/29 08:21:52;;;;;;;1.45;1.13;;;21.80;72.20;;;;;;4999392;28;20026;-49
2023/07/29 08:24:18;;;;;;;2.38;1.30;;;21.80;72.30;;;;;;4995159;28;20022;-52
2023/07/29 08:26:43;;;;;;;3.78;1.20;;;21.70;72.30;;;;;;4994225;28;20620;-52
2023/07/29 08:29:09;;;;;;;0.90;0.90;;;21.70;72.20;;;;;;4995065;28;20034;-51
2023/07/29 08:31:34;;;;;;;1.50;1.13;;;21.70;71.90;;;;;;4992328;28;20457;-52
2023/07/29 08:34:00;;;;;;;1.90;1.50;;;21.70;71.80;;;;;;4992776;28;20040;-50
2023/07/29 08:36:26;;;;;;;1.40;1.30;;;21.70;71.80;;;;;;4992957;28;20492;-50
2023/07/29 08:38:52;;;;;;;1.25;1.17;;;21.70;71.60;;;;;;4993945;28;20498;-51
2023/07/29 08:41:34;;;;;;;1.95;1.45;;;21.70;71.50;;;;;;4994083;28;20244;-52
2023/07/29 08:44:07;;;;;;;2.63;1.25;;;21.70;71.50;;;;;;4999958;28;20104;-50
2023/07/29 08:46:33;;;;;;;1.20;1.08;;;21.80;71.40;;;;;;4998176;28;20030;-51
2023/07/29 08:48:59;;;;;;;3.53;1.30;;;21.80;71.30;;;;;;4998489;28;20030;-50
2023/07/29 08:51:26;;;;;;;1.63;1.10;;;21.80;71.10;;;;;;4998212;28;20038;-53
2023/07/29 08:53:52;;;;;;;1.15;0.90;;;21.80;71.00;;;;;;4983747;28;20026;-50
2023/07/29 08:56:18;;;;;;;1.45;0.80;;;21.80;71.00;;;;;;4994435;28;20030;-51
2023/07/29 08:58:44;;;;;;;1.90;1.00;;;21.80;71.10;;;;;;4992577;28;20048;-51
2023/07/29 09:01:09;;;;;;;2.47;0.80;;;21.80;70.80;;;;;;4991800;28;20072;-51
2023/07/29 09:03:36;;;;;;;0.80;0.80;;;21.80;70.70;;;;;;4992571;28;20158;-53
2023/07/29 09:06:02;;;;;;;2.80;0.88;;;21.80;70.90;;;;;;4996809;28;20247;-52
2023/07/29 09:08:28;;;;;;;1.15;0.82;;;21.80;70.80;;;;;;4993745;28;20038;-54
2023/07/29 09:10:55;;;;;;;0.95;0.75;;;21.80;70.80;;;;;;4996477;28;20403;-50
2023/07/29 09:13:21;;;;;;;2.65;1.25;;;21.80;70.60;;;;;;4997891;28;20088;-53
2023/07/29 09:15:47;;;;;;;0.93;0.80;;;21.80;70.60;;;;;;4998091;28;20033;-51
2023/07/29 09:18:16;;;;;;;0.60;0.60;;;21.80;70.40;;;;;;4997387;28;20076;-49
2023/07/29 09:20:42;;;;;;;1.83;0.55;;;21.80;70.60;;;;;;4997351;28;20109;-51
2023/07/29 09:23:12;;;;;;;0.70;0.50;;;21.80;70.90;;;;;;4998139;28;20114;-51
2023/07/29 09:25:39;;;;;;;1.40;0.73;;;21.80;70.90;;;;;;4993612;28;20089;-50
2023/07/29 09:28:13;;;;;;;1.13;0.85;;;21.80;70.80;;;;;;4995628;28;20041;-52
2023/07/29 09:30:39;;;;;;;0.75;0.63;;;21.70;71.10;;;;;;4989270;28;20026;-50
2023/07/29 09:33:05;;;;;;;1.30;0.90;;;21.70;71.00;;;;;;4994380;28;20121;-51
2023/07/29 09:35:33;;;;;;;1.25;0.80;;;21.80;70.70;;;;;;4994078;28;20553;-52
2023/07/29 09:37:59;;;;;;;1.13;0.90;;;21.80;70.80;;;;;;4993229;28;20022;-50
2023/07/29 09:40:25;;;;;;;0.73;0.73;;;21.80;70.60;;;;;;4997627;28;20394;-51
2023/07/29 09:42:52;;;;;;;0.70;0.70;;;21.80;70.70;;;;;;4997944;28;20065;-53
2023/07/29 09:45:25;;;;;;;0.82;0.70;;;21.80;70.60;;;;;;4997225;28;20034;-52
2023/07/29 09:47:52;;;;;;;1.33;0.80;;;21.90;70.70;;;;;;4997167;28;20552;-51
2023/07/29 09:50:18;;;;;;;0.93;0.75;;;21.80;70.30;;;;;;4996389;28;20041;-50
2023/07/29 09:52:44;;;;;;;1.15;0.70;;;21.80;70.60;;;;;;4994781;28;20038;-50
2023/07/29 09:55:16;;;;;;;0.80;0.80;;;21.80;70.80;;;;;;4993765;28;20030;-52
2023/07/29 09:57:43;;;;;;;0.90;0.80;;;21.80;71.00;;;;;;4990872;28;20034;-51
2023/07/29 10:00:11;;;;;;;1.77;0.85;;;21.70;71.00;;;;;;4990259;28;20639;-51
2023/07/29 10:02:43;;;;;;;1.13;0.98;;;21.80;71.30;;;;;;4991339;28;20041;-52
2023/07/29 10:05:10;;;;;;;1.95;0.77;;;21.80;71.20;;;;;;4991391;28;20503;-53
2023/07/29 10:07:39;;;;;;;1.70;1.17;;;21.70;71.10;;;;;;4989428;28;20041;-49
2023/07/29 10:10:07;;;;;;;5.22;0.80;;;21.80;71.30;;;;;;4999071;28;20027;-52
2023/07/29 10:12:34;;;;;;;1.40;0.70;;;21.80;70.70;;;;;;4996290;28;20030;-53
2023/07/29 10:15:05;;;;;;;1.27;0.80;;;21.80;70.60;;;;;;4997855;28;20030;-51
2023/07/29 10:17:34;;;;;;;1.25;0.70;;;21.80;70.90;;;;;;4994999;28;20034;-52
2023/07/29 10:19:59;;;;;;;1.30;0.80;;;21.80;71.20;;;;;;4993095;28;20442;-53
2023/07/29 10:22:32;;;;;;;1.67;0.60;;;21.80;71.00;;;;;;4994173;28;20035;-50
2023/07/29 10:25:05;;;;;;;0.50;0.40;;;21.80;71.60;;;;;;4993403;28;20057;-51
2023/07/29 10:27:40;;;;;;;0.70;0.50;;;21.80;71.50;;;;;;4988836;28;20034;-53
2023/07/29 10:30:06;;;;;;;;;;;21.80;71.60;;;;;;4992690;28;20038;-53
2023/07/29 10:32:32;;;;;;;0.40;0.38;;;21.80;71.50;;;;;;4991470;28;20174;-50
2023/07/29 10:34:58;;;;;;;2.88;0.70;;;21.80;71.70;;;;;;4993423;28;20046;-53
2023/07/29 10:37:24;;;;;;;1.33;0.50;;;21.80;71.30;;;;;;4994399;28;20030;-50
2023/07/29 10:39:56;;;;;;;2.10;0.70;;;21.80;72.20;;;;;;4996375;28;20568;-50
2023/07/29 10:42:22;;;;;;;3.33;0.63;;;21.80;72.40;;;;;;4995963;28;20041;-51
2023/07/29 10:44:49;;;;;;;2.03;0.40;;;21.80;72.70;;;;;;4996361;28;20030;-53
2023/07/29 10:47:15;;;;;;;0.80;0.50;;;21.90;71.90;;;;;;4996640;28;20038;-51
2023/07/29 10:49:45;;;;;;;1.83;0.57;;;21.90;71.90;;;;;;4995083;28;20223;-50
2023/07/29 10:52:15;;;;;;;2.33;0.88;;;21.90;71.90;;;;;;4992529;28;20036;-52
2023/07/29 10:54:43;;;;;;;1.42;0.90;;;21.90;72.10;;;;;;4991036;28;20393;-54
2023/07/29 10:57:14;;;;;;;1.48;0.65;;;22.00;72.40;;;;;;4990955;28;20122;-50
2023/07/29 10:59:40;;;;;;;1.17;0.90;;;22.00;74.30;;;;;;4988572;28;20042;-51
2023/07/29 11:02:17;;;;;;;1.33;0.80;;;22.00;74.30;;;;;;4992185;28;20527;-51
2023/07/29 11:04:47;;;;;;;1.08;0.80;;;22.00;74.70;;;;;;4991800;28;20034;-51
2023/07/29 11:07:13;;;;;;;1.85;1.23;;;22.10;75.10;;;;;;4998313;28;20109;-53
2023/07/29 11:09:51;;;;;;;6.53;2.65;;;22.10;76.20;;;;;;4994894;28;20118;-53
2023/07/29 11:12:54;;;;;;;12.73;5.28;;;22.10;77.20;;;;;;4993043;28;20058;-54
2023/07/29 11:15:25;;;;;;;40.00;13.13;;;22.10;77.30;;;;;;4995051;28;20026;-51
2023/07/29 11:18:01;;;;;;;41.28;15.30;;;22.10;76.60;;;;;;4994503;28;20027;-51
2023/07/29 11:20:28;;;;;;;155.95;57.92;;;22.20;77.30;;;;;;4992450;28;20061;-52
2023/07/29 11:22:55;;;;;;;149.30;53.35;;;22.20;77.40;;;;;;4991636;28;20126;-54
2023/07/29 11:25:23;;;;;;;132.48;49.85;;;22.20;77.00;;;;;;4992427;28;20041;-51
2023/07/29 11:27:51;;;;;;;156.40;63.28;;;22.10;76.30;;;;;;4990729;28;20038;-51
2023/07/29 11:30:17;;;;;;;199.07;84.60;;;22.20;76.00;;;;;;4993155;28;20041;-57
2023/07/29 11:32:44;;;;;;;278.08;123.25;;;22.20;76.40;;;;;;4989839;28;20030;-50
2023/07/29 11:35:15;;;;;;;268.98;128.73;;;22.20;76.00;;;;;;4997887;28;20037;-53
2023/07/29 11:37:42;;;;;;;160.65;81.70;;;22.20;76.40;;;;;;4993668;28;20148;-50
2023/07/29 11:40:11;;;;;;;139.18;65.97;;;22.30;76.90;;;;;;4996850;28;20517;-51
2023/07/29 11:42:38;;;;;;;59.97;29.27;;;22.30;77.30;;;;;;4992697;28;20038;-51
2023/07/29 11:45:06;;;;;;;12.80;5.07;;;22.20;76.30;;;;;;4995561;28;20467;-53
2023/07/29 11:47:35;;;;;;;8.45;4.05;;;22.10;75.40;;;;;;4993988;28;20030;-53
2023/07/29 11:50:01;;;;;;;6.32;2.83;;;22.10;75.30;;;;;;4979123;28;20092;-53
2023/07/29 11:52:28;;;;;;;5.47;2.70;;;22.10;74.80;;;;;;4992016;28;20033;-50
2023/07/29 11:54:54;;;;;;;3.67;2.13;;;22.20;74.80;;;;;;4989864;28;20038;-50
2023/07/29 11:57:20;;;;;;;3.45;1.40;;;22.20;74.40;;;;;;4993327;28;20034;-50
2023/07/29 11:59:46;;;;;;;2.28;1.25;;;22.20;74.60;;;;;;4989458;28;20491;-51
2023/07/29 12:02:17;;;;;;;5.35;2.40;;;22.20;74.20;;;;;;4995802;28;20038;-53
2023/07/29 12:04:46;;;;;;;2.08;1.00;;;22.20;74.50;;;;;;4996065;28;20026;-51
2023/07/29 12:07:13;;;;;;;2.45;1.30;;;22.20;74.50;;;;;;4996265;28;20212;-51
2023/07/29 12:09:39;;;;;;;1.00;0.88;;;22.20;74.30;;;;;;4992675;28;20030;-54
2023/07/29 12:12:06;;;;;;;2.17;1.17;;;22.10;74.10;;;;;;4996843;28;20034;-51
2023/07/29 12:14:33;;;;;;;1.25;1.00;;;22.10;74.30;;;;;;4994753;28;20117;-52
2023/07/29 12:17:06;;;;;;;1.65;0.80;;;22.10;74.30;;;;;;4995495;28;20038;-54
2023/07/29 12:19:34;;;;;;;2.80;1.00;;;22.10;74.20;;;;;;4991272;28;20034;-52
2023/07/29 12:22:00;;;;;;;1.63;0.77;;;22.10;74.00;;;;;;4994640;28;20125;-50
2023/07/29 12:24:26;;;;;;;1.50;0.75;;;22.10;74.10;;;;;;4994686;28;20030;-50
2023/07/29 12:26:51;;;;;;;2.63;0.82;;;22.20;74.00;;;;;;4995735;28;20041;-52
2023/07/29 12:29:22;;;;;;;3.75;1.10;;;22.20;73.60;;;;;;4994842;28;20754;-59
2023/07/29 12:31:48;;;;;;;1.15;0.93;;;22.10;74.00;;;;;;4999303;28;20057;-51
2023/07/29 12:34:20;;;;;;;2.72;0.50;;;22.10;74.10;;;;;;5001203;28;20491;-51
2023/07/29 12:36:48;;;;;;;1.35;0.60;;;22.10;74.40;;;;;;4998549;28;20042;-53
2023/07/29 12:39:27;;;;;;;2.38;0.80;;;22.10;74.40;;;;;;4998408;28;20026;-50
2023/07/29 12:41:55;;;;;;;2.83;0.75;;;22.10;74.00;;;;;;4985399;28;20061;-52
2023/07/29 12:44:23;;;;;;;6.47;0.80;;;22.10;73.70;;;;;;4998889;28;20034;-53